Terminal Aerodrome Forecast
Issued by NWS

Home | Current Version | Previous Version | Graphics & Text | Print | Product List | Glossary On
Versions: 1 2 3 4 5 6 7 8 9 10 11 12 13 14 15 16 17 18 19
745
FTUS42 KMHX 231308 AAB
TAFPGV
TAF AMD
KPGV 231308Z 2313/2412 VRB04KT 2SM -SHRA BKN007 OVC020
     FM231500 15010G15KT P6SM VCSH SCT007 OVC015
     FM232000 21010G15KT 5SM SHRA SCT007 OVC015
     FM240600 VRB03KT P6SM VCSH OVC007
      AMD LTD TO CLD VIS AND WIND=

USA.gov is the U.S. government's official web portal to all federal, state and local government web resources and services.